Time;durP1;ratioP1;P1;durP2;ratioP2;P2;SDS_P1;SDS_P2;PMS_P1;PMS_P2;Temp;Humidity;BMP_temperature;BMP_pressure;BME280_temperature;BME280_humidity;BME280_pressure;Samples;Min_cycle;Max_cycle;Signal;HPM_P1;HPM_P2
2022/05/03 00:01:58;;;;;;;;;;;21.10;56.30;;;;;;5021059;28;19917;-52
2022/05/03 00:04:37;;;;;;;;;;;21.00;56.20;;;;;;5019549;28;19913;-55
2022/05/03 00:07:21;;;;;;;;;;;21.10;56.30;;;;;;5003941;28;19921;-55
2022/05/03 00:09:52;;;;;;;;;;;21.10;56.20;;;;;;4998543;28;20395;-53
2022/05/03 00:12:20;;;;;;;;;;;21.10;56.30;;;;;;5002578;28;20367;-55
2022/05/03 00:14:46;;;;;;;;;;;21.10;56.20;;;;;;5000360;28;19921;-54
2022/05/03 00:17:13;;;;;;;;;;;21.10;56.20;;;;;;5020698;28;19913;-51
2022/05/03 00:19:38;;;;;;;;;;;21.00;56.10;;;;;;5019897;28;19914;-51
2022/05/03 00:22:03;;;;;;;;;;;21.10;56.20;;;;;;5004836;28;20268;-52
2022/05/03 00:24:29;;;;;;;;;;;21.10;56.20;;;;;;4992919;28;19917;-53
2022/05/03 00:26:54;;;;;;;;;;;21.10;56.20;;;;;;5021442;28;20037;-52
2022/05/03 00:29:20;;;;;;;;;;;21.10;56.20;;;;;;5018514;28;19917;-51
2022/05/03 00:31:45;;;;;;;;;;;21.10;56.20;;;;;;5006320;28;19975;-55
2022/05/03 00:34:11;;;;;;;;;;;21.10;56.20;;;;;;4975748;28;20004;-55
2022/05/03 00:36:36;;;;;;;;;;;21.10;56.20;;;;;;5010812;28;20143;-52
2022/05/03 00:39:02;;;;;;;;;;;21.00;56.10;;;;;;5014567;28;20381;-55
2022/05/03 00:41:33;;;;;;;;;;;21.10;56.10;;;;;;5011519;28;19923;-54
2022/05/03 00:47:04;;;;;;;;;;;21.00;56.10;;;;;;5010540;28;19962;-53
2022/05/03 00:49:52;;;;;;;;;;;21.10;56.10;;;;;;5011427;28;20309;-55
2022/05/03 00:52:24;;;;;;;;;;;21.10;56.10;;;;;;5005012;28;20363;-55
2022/05/03 00:55:16;;;;;;;;;;;21.10;56.00;;;;;;4993815;28;19917;-54
2022/05/03 00:57:45;;;;;;;;;;;21.00;56.00;;;;;;4985777;28;19925;-55
2022/05/03 01:00:11;;;;;;;;;;;21.00;56.00;;;;;;5012106;28;19987;-56
2022/05/03 01:02:52;;;;;;;;;;;21.00;56.00;;;;;;5021267;28;19921;-57
2022/05/03 01:05:25;;;;;;;;;;;21.00;56.00;;;;;;5011800;28;19917;-54
2022/05/03 01:07:55;;;;;;;;;;;21.00;56.00;;;;;;5004579;28;19913;-53
2022/05/03 01:10:53;;;;;;;;;;;21.00;56.00;;;;;;4994467;28;20002;-56
2022/05/03 01:13:25;;;;;;;;;;;21.00;56.00;;;;;;4997082;28;20813;-56
2022/05/03 01:15:52;;;;;;;;;;;21.00;55.90;;;;;;4999184;28;19917;-54
2022/05/03 01:18:24;;;;;;;;;;;21.00;56.50;;;;;;5016849;28;20579;-52
2022/05/03 01:21:00;;;;;;;;;;;21.10;55.90;;;;;;5034290;28;20596;-54
2022/05/03 01:23:29;;;;;;;;;;;21.00;55.80;;;;;;5011299;28;19926;-54
2022/05/03 01:26:01;;;;;;;;;;;21.00;55.90;;;;;;5001485;28;20374;-54
2022/05/03 01:28:32;;;;;;;;;;;21.00;55.80;;;;;;5015163;28;19929;-54
2022/05/03 01:30:58;;;;;;;;;;;21.00;55.80;;;;;;5020586;28;19925;-53
2022/05/03 01:33:29;;;;;;;;;;;21.00;55.80;;;;;;5000684;28;20166;-55
2022/05/03 01:35:55;;;;;;;;;;;20.90;55.80;;;;;;5000778;28;20541;-56
2022/05/03 01:38:32;;;;;;;;;;;21.00;55.80;;;;;;5010593;28;19913;-56
2022/05/03 01:41:15;;;;;;;;;;;21.00;55.80;;;;;;5035581;28;19921;-53
2022/05/03 01:43:51;;;;;;;;;;;21.00;55.80;;;;;;4991836;28;20714;-55
2022/05/03 01:46:20;;;;;;;;;;;21.00;55.80;;;;;;4999899;28;20357;-54
2022/05/03 01:51:38;;;;;;;;;;;21.00;55.80;;;;;;5032474;28;19920;-55
2022/05/03 01:54:22;;;;;;;;;;;21.00;55.70;;;;;;4991247;28;19914;-55
2022/05/03 01:56:58;;;;;;;;;;;20.90;55.70;;;;;;4992019;28;19979;-52
2022/05/03 01:59:32;;;;;;;;;;;20.90;55.70;;;;;;4994632;28;20433;-58
2022/05/03 02:02:00;;;;;;;;;;;20.90;55.70;;;;;;5017956;28;19921;-55
2022/05/03 02:04:26;;;;;;;;;;;20.90;55.70;;;;;;4976338;28;19976;-57
2022/05/03 02:07:10;;;;;;;;;;;20.90;55.70;;;;;;4999794;28;20318;-53
2022/05/03 02:09:40;;;;;;;;;;;20.90;55.70;;;;;;5014216;28;20393;-58
2022/05/03 02:12:12;;;;;;;;;;;20.90;55.60;;;;;;4988630;28;19922;-58
2022/05/03 02:14:47;;;;;;;;;;;20.90;55.60;;;;;;5005247;28;19918;-53
2022/05/03 02:17:30;;;;;;;;;;;20.90;55.70;;;;;;5000595;28;19937;-57
2022/05/03 02:19:55;;;;;;;;;;;20.90;55.60;;;;;;4982299;28;19925;-56
2022/05/03 02:22:31;;;;;;;;;;;20.90;55.60;;;;;;4996756;28;19925;-55
2022/05/03 02:24:58;;;;;;;;;;;20.90;55.60;;;;;;4988779;28;19913;-54
2022/05/03 02:27:25;;;;;;;;;;;20.90;55.60;;;;;;4985207;28;19917;-55
2022/05/03 02:29:51;;;;;;;;;;;20.90;55.60;;;;;;5012999;28;19917;-56
2022/05/03 02:32:22;;;;;;;;;;;20.90;55.60;;;;;;5019690;28;19980;-52
2022/05/03 02:34:48;;;;;;;;;;;20.90;55.60;;;;;;4976804;28;20382;-55
2022/05/03 02:37:23;;;;;;;;;;;20.90;55.60;;;;;;5000552;28;19959;-57
2022/05/03 02:40:04;;;;;;;;;;;20.90;55.60;;;;;;4993318;28;19920;-56
2022/05/03 02:42:31;;;;;;;;;;;20.90;55.60;;;;;;5001020;28;19921;-57
2022/05/03 02:44:56;;;;;;;;;;;20.90;55.60;;;;;;5012012;28;20289;-53
2022/05/03 02:47:41;;;;;;;;;;;20.90;55.50;;;;;;5019880;28;20019;-56
2022/05/03 02:50:12;;;;;;;;;;;20.90;55.50;;;;;;4991571;28;20008;-54
2022/05/03 02:52:42;;;;;;;;;;;20.90;55.50;;;;;;5001365;28;20008;-55
2022/05/03 02:55:18;;;;;;;;;;;20.90;55.60;;;;;;5012583;28;20292;-54
2022/05/03 02:57:50;;;;;;;;;;;20.90;55.60;;;;;;5018108;28;19921;-55
2022/05/03 03:03:23;;;;;;;;;;;20.90;55.60;;;;;;4987883;28;19944;-52
2022/05/03 03:05:49;;;;;;;;;;;20.90;55.50;;;;;;5014180;28;19924;-55
2022/05/03 03:08:19;;;;;;;;;;;20.90;55.50;;;;;;5008174;28;19914;-55
2022/05/03 03:11:09;;;;;;;;;;;20.80;55.50;;;;;;4998900;28;19924;-57
2022/05/03 03:13:37;;;;;;;;;;;20.80;55.50;;;;;;4999679;28;19925;-53
2022/05/03 03:16:03;;;;;;;;;;;20.80;55.40;;;;;;5019903;28;19987;-53
2022/05/03 03:18:28;;;;;;;;;;;20.80;55.40;;;;;;4988454;28;19918;-55
2022/05/03 03:20:55;;;;;;;;;;;20.80;55.40;;;;;;4985185;28;19991;-56
2022/05/03 03:23:24;;;;;;;;;;;20.80;55.40;;;;;;4999495;28;19918;-51
2022/05/03 03:25:50;;;;;;;;;;;20.80;55.50;;;;;;5023016;28;20294;-58
2022/05/03 03:28:16;;;;;;;;;;;20.80;55.50;;;;;;4997968;28;19916;-55
2022/05/03 03:30:42;;;;;;;;;;;20.80;55.50;;;;;;4986569;28;19944;-56
2022/05/03 03:33:08;;;;;;;;;;;20.80;55.50;;;;;;4999193;28;19925;-56
2022/05/03 03:35:33;;;;;;;;;;;20.80;55.40;;;;;;4998889;28;19921;-57
2022/05/03 03:38:01;;;;;;;;;;;20.80;55.50;;;;;;5022852;28;19917;-53
2022/05/03 03:40:26;;;;;;;;;;;20.80;55.40;;;;;;5003400;28;19975;-52
2022/05/03 03:42:52;;;;;;;;;;;20.80;55.40;;;;;;5004965;28;19917;-54
2022/05/03 03:45:17;;;;;;;;;;;20.80;55.40;;;;;;5010190;28;19913;-57
2022/05/03 03:47:44;;;;;;;;;;;20.80;55.40;;;;;;4986636;28;19917;-56
2022/05/03 03:50:09;;;;;;;;;;;20.80;55.40;;;;;;5016823;28;20302;-58
2022/05/03 03:52:35;;;;;;;;;;;20.80;55.40;;;;;;5011692;28;19917;-57
2022/05/03 03:55:01;;;;;;;;;;;20.80;55.40;;;;;;5027225;28;19948;-56
2022/05/03 03:57:27;;;;;;;;;;;20.80;55.40;;;;;;5024891;28;20223;-53
2022/05/03 03:59:52;;;;;;;;;;;20.70;55.40;;;;;;5011931;28;20307;-56
2022/05/03 04:02:18;;;;;;;;;;;20.70;55.30;;;;;;4986290;28;19921;-55
2022/05/03 04:04:44;;;;;;;;;;;20.70;55.30;;;;;;4992099;28;19917;-57
2022/05/03 04:07:09;;;;;;;;;;;20.80;55.40;;;;;;4986305;28;19964;-53
2022/05/03 04:09:35;;;;;;;;;;;20.70;55.30;;;;;;4968160;28;19945;-55
2022/05/03 04:12:00;;;;;;;;;;;20.70;55.30;;;;;;5002165;28;20453;-56
2022/05/03 04:14:26;;;;;;;;;;;20.70;55.30;;;;;;5006818;28;19999;-56
2022/05/03 04:16:51;;;;;;;;;;;20.70;55.30;;;;;;5021860;28;19917;-57
2022/05/03 04:19:17;;;;;;;;;;;20.70;55.30;;;;;;5018124;28;19922;-53
2022/05/03 04:21:42;;;;;;;;;;;20.70;55.30;;;;;;5002674;28;19921;-56
2022/05/03 04:24:08;;;;;;;;;;;20.70;55.30;;;;;;5002667;28;19918;-57
2022/05/03 04:26:33;;;;;;;;;;;20.70;55.30;;;;;;5022529;28;19917;-55
2022/05/03 04:28:59;;;;;;;;;;;20.70;55.30;;;;;;5002533;28;19917;-54
2022/05/03 04:31:25;;;;;;;;;;;20.70;55.20;;;;;;5002265;28;19918;-55
2022/05/03 04:33:51;;;;;;;;;;;20.70;55.20;;;;;;5001788;28;20052;-54
2022/05/03 04:36:16;;;;;;;;;;;20.70;55.20;;;;;;5018713;28;19951;-53
2022/05/03 04:38:42;;;;;;;;;;;20.70;55.30;;;;;;5020018;28;19924;-60
2022/05/03 04:41:07;;;;;;;;;;;20.80;55.40;;;;;;5006105;28;19929;-58
2022/05/03 04:43:32;;;;;;;;;;;20.80;55.40;;;;;;4999944;28;20383;-53
2022/05/03 04:45:58;;;;;;;;;;;20.80;55.60;;;;;;5014180;28;20264;-55
2022/05/03 04:48:24;;;;;;;;;;;20.80;55.60;;;;;;5020811;28;19917;-55
2022/05/03 04:50:49;;;;;;;;;;;20.80;55.60;;;;;;5009627;28;19963;-54
2022/05/03 04:53:16;;;;;;;;;;;20.80;55.60;;;;;;5001030;28;20036;-54
2022/05/03 04:55:42;;;;;;;;;;;20.80;55.60;;;;;;5021036;23;20015;-53
2022/05/03 04:58:07;;;;;;;;;;;20.80;55.70;;;;;;5021134;28;20457;-54
2022/05/03 05:00:33;;;;;;;;;;;20.90;55.90;;;;;;5016683;28;19917;-52
2022/05/03 05:02:58;;;;;;;;;;;20.80;55.80;;;;;;5013304;28;19919;-56
2022/05/03 05:05:23;;;;;;;;;;;20.80;56.00;;;;;;5019727;28;20151;-56
2022/05/03 05:07:49;;;;;;;;;;;20.80;55.70;;;;;;5040429;28;19917;-55
2022/05/03 05:10:24;;;;;;;;;;;20.80;55.90;;;;;;5035921;28;19919;-56
2022/05/03 05:12:49;;;;;;;;;;;20.80;55.80;;;;;;5021184;28;19917;-55
2022/05/03 05:15:15;;;;;;;;;;;20.80;55.80;;;;;;5024152;28;19923;-57
2022/05/03 05:17:40;;;;;;;;;;;20.80;56.10;;;;;;5041729;28;20447;-57
2022/05/03 05:20:06;;;;;;;;;;;20.80;56.00;;;;;;5039014;28;19948;-54
2022/05/03 05:22:32;;;;;;;;;;;20.80;56.30;;;;;;5020269;28;19956;-56
2022/05/03 05:24:57;;;;;;;;;;;20.80;56.20;;;;;;5020128;28;19921;-55
2022/05/03 05:27:23;;;;;;;;;;;20.90;56.30;;;;;;5035952;28;19917;-56
2022/05/03 05:29:48;;;;;;;;;;;20.90;56.40;;;;;;5034533;28;19920;-55
2022/05/03 05:32:14;;;;;;;;;;;20.90;56.40;;;;;;5037119;28;20451;-54
2022/05/03 05:34:39;;;;;;;;;;;20.90;57.00;;;;;;5020834;28;19919;-55
2022/05/03 05:37:04;;;;;;;;;;;20.90;56.90;;;;;;5023864;28;19917;-56
2022/05/03 05:39:31;;;;;;;;;;;20.90;56.90;;;;;;5019087;28;19921;-55
2022/05/03 05:41:57;;;;;;;;;;;20.90;56.90;;;;;;5033670;28;19928;-57
2022/05/03 05:44:22;;;;;;;;;;;20.90;57.30;;;;;;5035267;28;19917;-59
2022/05/03 05:46:48;;;;;;;;;;;20.90;56.90;;;;;;5019539;28;19921;-60
2022/05/03 05:49:13;;;;;;;;;;;20.90;57.50;;;;;;5018883;28;20326;-60
2022/05/03 05:51:38;;;;;;;;;;;20.90;57.70;;;;;;5028453;28;19917;-61
2022/05/03 05:54:04;;;;;;;;;;;20.90;57.90;;;;;;5040982;28;19963;-61
2022/05/03 05:56:29;;;;;;;;;;;20.90;58.10;;;;;;5039330;28;20008;-60
2022/05/03 05:58:55;;;;;;;;;;;20.90;58.10;;;;;;5038276;28;20302;-60
2022/05/03 06:01:24;;;;;;;;;;;20.90;58.10;;;;;;5040161;28;19921;-60
2022/05/03 06:03:50;;;;;;;;;;;20.90;57.90;;;;;;5040079;28;20021;-60
2022/05/03 06:06:15;;;;;;;;;;;20.90;57.70;;;;;;5039232;28;19924;-61
2022/05/03 06:08:41;;;;;;;;;;;20.80;57.60;;;;;;5038022;28;19917;-62
2022/05/03 06:11:06;;;;;;;;;;;20.90;57.50;;;;;;5040703;28;19917;-60
2022/05/03 06:13:32;;;;;;;;;;;20.90;57.50;;;;;;5039829;28;19923;-60
2022/05/03 06:16:07;;;;;;;;;;;20.90;57.20;;;;;;5021668;28;20445;-60
2022/05/03 06:18:33;;;;;;;;;;;20.90;57.10;;;;;;5020681;28;20051;-61
2022/05/03 06:21:00;;;;;;;;;;;20.90;56.80;;;;;;5021783;28;19928;-61
2022/05/03 06:23:26;;;;;;;;;;;20.90;56.90;;;;;;5038625;28;19912;-59
2022/05/03 06:25:52;;;;;;;;;;;20.90;56.90;;;;;;5039620;28;20285;-62
2022/05/03 06:28:18;;;;;;;;;;;20.90;56.70;;;;;;5038561;28;19917;-61
2022/05/03 06:30:43;;;;;;;;;;;20.90;56.60;;;;;;5039292;28;19924;-61
2022/05/03 06:33:09;;;;;;;;;;;20.90;56.70;;;;;;5039764;28;19913;-60
2022/05/03 06:35:34;;;;;;;;;;;21.00;56.80;;;;;;5040493;28;20294;-58
2022/05/03 06:38:00;;;;;;;;;;;20.90;56.80;;;;;;5039084;28;19917;-59
2022/05/03 06:40:25;;;;;;;;;;;20.90;56.80;;;;;;5037584;28;19916;-59
2022/05/03 06:42:51;;;;;;;;;;;20.90;57.00;;;;;;5028827;28;19968;-60
2022/05/03 06:45:17;;;;;;;;;;;21.00;57.10;;;;;;5033889;28;20362;-59
2022/05/03 06:47:42;;;;;;;;;;;20.90;56.90;;;;;;5037627;28;20372;-58
2022/05/03 06:50:08;;;;;;;;;;;20.90;57.00;;;;;;5037481;28;19916;-60
2022/05/03 06:52:34;;;;;;;;;;;20.90;57.00;;;;;;5016770;28;20388;-59
2022/05/03 06:54:59;;;;;;;;;;;20.90;57.20;;;;;;5033517;28;19917;-59
2022/05/03 06:57:25;;;;;;;;;;;20.90;57.00;;;;;;5038587;28;19925;-59
2022/05/03 06:59:51;;;;;;;;;;;20.90;57.30;;;;;;5041613;28;19917;-58
2022/05/03 07:02:16;;;;;;;;;;;20.90;57.20;;;;;;5042420;28;19917;-59
2022/05/03 07:04:46;;;;;;;;;;;20.90;57.10;;;;;;5043365;28;19917;-60
2022/05/03 07:07:11;;;;;;;;;;;20.90;57.30;;;;;;5043279;28;20352;-59
2022/05/03 07:09:37;;;;;;;;;;;20.90;56.90;;;;;;5041953;28;19920;-60
2022/05/03 07:12:03;;;;;;;;;;;20.90;56.90;;;;;;5042596;28;20023;-59
2022/05/03 07:14:28;;;;;;;;;;;20.90;57.10;;;;;;5042939;28;20237;-60
2022/05/03 07:16:54;;;;;;;;;;;21.00;57.10;;;;;;5042029;28;19916;-57
2022/05/03 07:24:47;;;;;;;;;;;20.90;56.50;;;;;;5042411;28;20738;-59
2022/05/03 07:27:13;;;;;;;;;;;21.00;56.10;;;;;;5042981;28;19913;-60
2022/05/03 07:29:38;;;;;;;;;;;21.00;56.00;;;;;;5039661;28;19978;-60
2022/05/03 07:32:04;;;;;;;;;;;21.00;56.10;;;;;;5041168;28;20614;-60
2022/05/03 07:34:30;;;;;;;;;;;21.00;56.00;;;;;;5023126;28;20518;-59
2022/05/03 07:36:55;;;;;;;;;;;21.00;56.00;;;;;;5022545;28;20154;-60
2022/05/03 07:39:21;;;;;;;;;;;21.00;56.00;;;;;;5039222;28;20194;-60
2022/05/03 07:41:46;;;;;;;;;;;20.90;55.80;;;;;;5043128;28;19921;-59
2022/05/03 07:44:11;;;;;;;;;;;21.00;55.90;;;;;;5026894;28;19917;-59
2022/05/03 07:46:37;;;;;;;;;;;21.00;55.90;;;;;;5022507;28;19936;-60
2022/05/03 07:49:02;;;;;;;;;;;20.90;55.80;;;;;;5033943;28;19923;-59
2022/05/03 07:51:28;;;;;;;;;;;20.90;55.80;;;;;;5041715;28;19956;-59
2022/05/03 07:53:53;;;;;;;;;;;20.90;55.80;;;;;;5030315;28;20188;-60
2022/05/03 07:56:19;;;;;;;;;;;20.90;55.90;;;;;;5022640;28;20301;-60
2022/05/03 07:58:44;;;;;;;;;;;20.90;55.90;;;;;;5030105;28;19939;-59
2022/05/03 08:01:10;;;;;;;;;;;20.90;55.80;;;;;;5041192;28;19920;-61
2022/05/03 08:03:35;;;;;;;;;;;20.90;55.80;;;;;;5034466;28;20583;-59
2022/05/03 08:06:02;;;;;;;;;;;20.90;56.10;;;;;;5020676;28;20456;-59
2022/05/03 08:08:28;;;;;;;;;;;20.90;55.80;;;;;;5026763;28;19913;-60
2022/05/03 08:10:53;;;;;;;;;;;21.00;55.80;;;;;;5042700;28;20364;-59
2022/05/03 08:13:19;;;;;;;;;;;20.90;55.80;;;;;;5019249;28;19920;-59
2022/05/03 08:15:44;;;;;;;;;;;20.90;55.80;;;;;;5021029;28;19917;-60
2022/05/03 08:18:09;;;;;;;;;;;21.00;55.80;;;;;;5023230;28;19924;-66
2022/05/03 08:20:35;;;;;;;;;;;20.90;55.80;;;;;;5039596;28;20026;-60
2022/05/03 08:23:00;;;;;;;;;;;20.90;55.80;;;;;;5040121;28;19925;-60
2022/05/03 08:25:26;;;;;;;;;;;20.90;55.80;;;;;;5021163;28;19917;-61
2022/05/03 08:27:52;;;;;;;;;;;20.90;55.80;;;;;;5021085;28;19913;-60
2022/05/03 08:30:17;;;;;;;;;;;20.90;55.80;;;;;;5037838;28;20555;-59
2022/05/03 08:32:43;;;;;;;;;;;20.90;55.80;;;;;;5040914;28;19913;-60
2022/05/03 08:35:08;;;;;;;;;;;20.90;55.80;;;;;;5024263;28;19922;-60
2022/05/03 08:43:02;;;;;;;;;;;20.90;55.80;;;;;;5040457;28;19927;-60
2022/05/03 08:45:27;;;;;;;;;;;20.90;55.70;;;;;;5022148;28;19913;-61
2022/05/03 08:47:53;;;;;;;;;;;20.90;55.80;;;;;;5003563;28;19971;-59
2022/05/03 08:50:19;;;;;;;;;;;20.90;55.80;;;;;;5017489;28;20289;-60
2022/05/03 08:52:48;;;;;;;;;;;20.90;55.80;;;;;;5040574;28;19916;-60
2022/05/03 08:55:14;;;;;;;;;;;20.90;55.80;;;;;;5008021;28;19913;-59
2022/05/03 08:57:40;;;;;;;;;;;20.90;55.70;;;;;;5017947;28;19928;-60
2022/05/03 09:00:06;;;;;;;;;;;20.90;55.70;;;;;;5029265;28;20000;-58
2022/05/03 09:02:33;;;;;;;;;;;20.90;55.70;;;;;;5040833;28;19973;-59
2022/05/03 09:04:59;;;;;;;;;;;20.90;55.70;;;;;;5030177;28;19917;-59
2022/05/03 09:07:25;;;;;;;;;;;20.90;55.80;;;;;;5020837;28;19919;-59
2022/05/03 09:09:51;;;;;;;;;;;20.90;55.80;;;;;;5028940;28;19919;-59
2022/05/03 09:12:26;;;;;;;;;;;20.90;55.70;;;;;;5040952;28;19927;-59
2022/05/03 09:14:51;;;;;;;;;;;20.90;55.70;;;;;;5039989;28;20119;-60
2022/05/03 09:17:32;;;;;;;;;;;20.90;55.80;;;;;;5040448;28;19913;-59
2022/05/03 09:19:58;;;;;;;;;;;20.90;55.80;;;;;;5030878;28;19913;-59
2022/05/03 09:25:09;;;;;;;;;;;20.90;55.80;;;;;;5028475;28;19920;-59
2022/05/03 09:27:35;;;;;;;;;;;20.90;55.80;;;;;;5023506;28;20324;-60
2022/05/03 09:30:04;;;;;;;;;;;20.90;55.80;;;;;;5042082;28;19917;-60
2022/05/03 09:32:40;;;;;;;;;;;20.90;55.80;;;;;;5041160;28;19955;-59
2022/05/03 09:35:06;;;;;;;;;;;20.90;55.80;;;;;;5034351;28;19979;-61
2022/05/03 09:37:41;;;;;;;;;;;20.90;55.80;;;;;;5020444;28;19935;-61
2022/05/03 09:40:10;;;;;;;;;;;20.90;55.80;;;;;;5025344;28;20007;-60
2022/05/03 09:42:36;;;;;;;;;;;20.90;55.80;;;;;;5022220;28;19921;-61
2022/05/03 09:45:02;;;;;;;;;;;20.90;55.70;;;;;;5040453;28;19912;-62
2022/05/03 09:47:28;;;;;;;;;;;20.80;55.70;;;;;;5040103;28;19917;-60
2022/05/03 09:49:54;;;;;;;;;;;20.90;56.30;;;;;;5034134;28;20401;-61
2022/05/03 09:52:32;;;;;;;;;;;20.90;55.70;;;;;;5019565;28;19917;-61
2022/05/03 09:55:03;;;;;;;;;;;20.90;55.70;;;;;;5006175;28;19917;-62
2022/05/03 09:57:31;;;;;;;;;;;20.90;55.70;;;;;;5021211;28;20374;-62
2022/05/03 09:59:57;;;;;;;;;;;20.90;55.60;;;;;;5020798;28;19913;-59
2022/05/03 10:02:23;;;;;;;;;;;20.90;55.70;;;;;;5039426;28;20397;-59
2022/05/03 10:04:50;;;;;;;;;;;20.90;55.70;;;;;;5037729;28;19920;-59
2022/05/03 10:07:15;;;;;;;;;;;20.90;55.70;;;;;;5019913;28;20008;-62
2022/05/03 10:09:41;;;;;;;;;;;20.90;55.60;;;;;;5018395;28;19913;-65
2022/05/03 10:12:08;;;;;;;;;;;20.90;55.60;;;;;;5038823;28;19917;-62
2022/05/03 10:14:34;;;;;;;;;;;20.90;55.60;;;;;;5039034;28;19923;-62
2022/05/03 10:22:28;;;;;;;;;;;20.90;55.50;;;;;;5003360;28;20137;-61
2022/05/03 10:24:54;;;;;;;;;;;20.90;55.50;;;;;;4997917;28;19913;-60
2022/05/03 10:27:23;;;;;;;;;;;20.90;55.50;;;;;;5030901;28;19936;-62
2022/05/03 10:30:07;;;;;;;;;;;20.90;55.50;;;;;;5036628;28;20222;-61
2022/05/03 10:32:33;;;;;;;;;;;20.90;55.40;;;;;;5017777;28;19917;-60
2022/05/03 10:35:03;;;;;;;;;;;21.00;55.50;;;;;;5016009;28;19924;-62
2022/05/03 10:37:36;;;;;;;;;;;20.90;55.40;;;;;;5035810;28;20312;-61
2022/05/03 10:40:06;;;;;;;;;;;20.90;55.40;;;;;;5034320;28;19948;-61
2022/05/03 10:42:32;;;;;;;;;;;20.90;55.40;;;;;;5015895;28;20092;-59
2022/05/03 10:45:03;;;;;;;;;;;21.00;55.40;;;;;;5027494;28;19920;-61
2022/05/03 10:47:48;;;;;;;;;;;21.00;55.40;;;;;;5036391;28;20016;-60
2022/05/03 10:50:15;;;;;;;;;;;21.00;55.40;;;;;;5026576;28;20487;-63
2022/05/03 10:52:42;;;;;;;;;;;21.00;55.40;;;;;;5003474;28;19914;-62
2022/05/03 10:55:08;;;;;;;;;;;20.90;55.40;;;;;;5002027;28;21364;-62
2022/05/03 10:57:52;;;;;;;;;;;20.90;55.40;;;;;;5026281;28;19943;-62
2022/05/03 11:00:17;;;;;;;;;;;20.90;55.40;;;;;;5037755;28;19913;-59
2022/05/03 11:03:03;;;;;;;;;;;20.90;55.40;;;;;;4983169;28;20163;-62
2022/05/03 11:05:28;;;;;;;;;;;20.90;55.40;;;;;;5019554;28;19917;-62
2022/05/03 11:08:12;;;;;;;;;;;20.90;55.40;;;;;;5036610;28;19924;-61
2022/05/03 11:10:40;;;;;;;;;;;20.90;55.40;;;;;;5037772;28;20039;-59
2022/05/03 11:13:27;;;;;;;;;;;20.90;55.40;;;;;;4991465;28;19971;-62
2022/05/03 11:16:11;;;;;;;;;;;20.90;55.40;;;;;;5014889;28;19913;-59
2022/05/03 11:18:37;;;;;;;;;;;21.00;55.40;;;;;;5033218;28;19943;-61
2022/05/03 11:21:14;;;;;;;;;;;20.90;55.30;;;;;;5021646;28;19927;-60
2022/05/03 11:23:47;;;;;;;;;;;21.00;55.40;;;;;;5037955;28;20546;-61
2022/05/03 11:26:13;;;;;;;;;;;21.00;55.30;;;;;;5038801;28;20650;-61
2022/05/03 11:28:38;;;;;;;;;;;21.00;55.30;;;;;;5020442;28;19947;-60
2022/05/03 11:31:04;;;;;;;;;;;21.00;55.30;;;;;;5038504;28;19913;-61
2022/05/03 11:33:29;;;;;;;;;;;21.00;55.30;;;;;;5000454;28;20341;-58
2022/05/03 11:35:55;;;;;;;;;;;21.00;55.30;;;;;;5018232;28;19923;-60
2022/05/03 11:38:21;;;;;;;;;;;21.00;55.30;;;;;;5035607;28;19913;-61
2022/05/03 11:40:46;;;;;;;;;;;21.00;55.30;;;;;;5039782;28;19970;-61
2022/05/03 11:43:13;;;;;;;;;;;21.00;55.20;;;;;;5027275;28;20006;-64
2022/05/03 11:45:38;;;;;;;;;;;21.00;55.20;;;;;;5023398;28;19924;-61
2022/05/03 11:48:03;;;;;;;;;;;21.00;55.20;;;;;;5036809;28;19913;-59
2022/05/03 11:56:00;;;;;;;;;;;21.00;55.20;;;;;;5024577;28;20020;-60
2022/05/03 11:58:29;;;;;;;;;;;21.10;55.20;;;;;;5023416;28;19991;-61
2022/05/03 12:00:54;;;;;;;;;;;21.10;55.80;;;;;;5042717;28;20414;-61
2022/05/03 12:03:20;;;;;;;;;;;21.10;55.20;;;;;;5042402;28;19919;-61
2022/05/03 12:05:56;;;;;;;;;;;21.10;55.20;;;;;;5024753;28;20282;-61
2022/05/03 12:08:22;;;;;;;;;;;21.10;55.20;;;;;;5040764;28;20051;-60
2022/05/03 12:10:48;;;;;;;;;;;21.10;55.20;;;;;;5024161;28;19981;-61
2022/05/03 12:13:14;;;;;;;;;;;21.10;55.50;;;;;;5041733;28;20496;-60
2022/05/03 12:15:49;;;;;;;;;;;21.10;55.20;;;;;;5041373;28;19917;-61
2022/05/03 12:18:19;;;;;;;;;;;21.10;55.10;;;;;;5033575;28;19924;-61
2022/05/03 12:20:51;;;;;;;;;;;21.10;55.20;;;;;;5032554;28;19913;-61
2022/05/03 12:23:18;;;;;;;;;;;21.10;55.20;;;;;;5031892;28;19966;-60
2022/05/03 12:25:44;;;;;;;;;;;21.10;55.10;;;;;;5015464;28;19962;-61
2022/05/03 12:28:10;;;;;;;;;;;21.10;55.10;;;;;;5036595;28;19913;-59
2022/05/03 12:30:35;;;;;;;;;;;21.10;55.10;;;;;;5019310;28;19913;-60
2022/05/03 12:33:02;;;;;;;;;;;21.10;55.10;;;;;;5021232;28;19963;-61
2022/05/03 12:35:28;;;;;;;;;;;21.10;55.20;;;;;;5020852;28;20304;-58
2022/05/03 12:37:53;;;;;;;;;;;21.10;55.20;;;;;;5002446;28;20091;-60
2022/05/03 12:40:25;;;;;;;;;;;21.10;55.20;;;;;;5019531;28;20217;-60
2022/05/03 12:42:50;;;;;;;;;;;21.10;55.10;;;;;;5020431;28;19975;-60
2022/05/03 12:45:19;;;;;;;;;;;21.10;55.20;;;;;;5020509;28;20254;-60
2022/05/03 12:47:45;;;;;;;;;;;21.20;55.20;;;;;;5020551;28;19925;-58
2022/05/03 12:50:10;;;;;;;;;;;21.10;55.10;;;;;;5020067;28;19917;-60
2022/05/03 12:52:36;;;;;;;;;;;21.10;55.30;;;;;;5001874;28;20532;-59
2022/05/03 12:55:02;;;;;;;;;;;21.20;55.20;;;;;;5020591;28;19996;-59
2022/05/03 13:00:11;;;;;;;;;;;21.20;55.20;;;;;;5019472;28;19967;-59
2022/05/03 13:02:37;;;;;;;;;;;21.20;55.20;;;;;;5021547;28;20618;-59
2022/05/03 13:05:04;;;;;;;;;;;21.20;55.20;;;;;;5019056;28;20329;-59
2022/05/03 13:07:30;;;;;;;;;;;21.20;55.10;;;;;;5020637;28;20294;-60
2022/05/03 13:09:55;;;;;;;;;;;21.20;55.20;;;;;;5037039;28;19917;-60
2022/05/03 13:12:21;;;;;;;;;;;21.20;55.20;;;;;;5040005;28;20366;-61
2022/05/03 13:14:46;;;;;;;;;;;21.20;55.10;;;;;;5040071;28;19935;-61
2022/05/03 13:17:13;;;;;;;;;;;21.20;55.70;;;;;;5041435;28;20350;-60
2022/05/03 13:19:38;;;;;;;;;;;21.20;55.10;;;;;;5020900;28;19912;-57
2022/05/03 13:22:04;;;;;;;;;;;21.20;55.20;;;;;;5040497;28;22723;-62
2022/05/03 13:24:29;;;;;;;;;;;21.20;55.20;;;;;;5039962;28;20034;-60
2022/05/03 13:26:55;;;;;;;;;;;21.20;55.20;;;;;;5039767;28;19916;-63
2022/05/03 13:29:21;;;;;;;;;;;21.20;55.20;;;;;;5020717;28;19916;-61
2022/05/03 13:31:46;;;;;;;;;;;21.20;55.20;;;;;;5040466;28;19923;-61
2022/05/03 13:34:12;;;;;;;;;;;21.20;55.20;;;;;;5040744;28;20352;-60
2022/05/03 13:42:06;;;;;;;;;;;21.20;55.20;;;;;;5040790;28;19924;-60
2022/05/03 13:44:32;;;;;;;;;;;21.20;55.20;;;;;;5040056;28;19913;-60
2022/05/03 13:46:58;;;;;;;;;;;21.20;55.10;;;;;;5040362;28;19913;-58
2022/05/03 13:49:24;;;;;;;;;;;21.30;55.20;;;;;;5037947;28;19917;-58
2022/05/03 13:51:49;;;;;;;;;;;21.30;55.10;;;;;;5038526;28;19917;-60
2022/05/03 13:54:15;;;;;;;;;;;21.30;55.10;;;;;;5040019;28;19917;-62
2022/05/03 13:56:40;;;;;;;;;;;21.30;55.10;;;;;;5039554;28;19929;-60
2022/05/03 13:59:07;;;;;;;;;;;21.30;55.70;;;;;;5037525;28;20465;-60
2022/05/03 14:01:33;;;;;;;;;;;21.30;55.10;;;;;;5038369;28;19923;-60
2022/05/03 14:03:59;;;;;;;;;;;21.30;55.10;;;;;;5037941;28;19917;-60
2022/05/03 14:06:25;;;;;;;;;;;21.30;55.10;;;;;;5039155;28;19967;-59
2022/05/03 14:08:51;;;;;;;;;;;21.30;55.10;;;;;;5020044;28;19921;-61
2022/05/03 14:11:16;;;;;;;;;;;21.30;55.10;;;;;;5039160;28;19921;-59
2022/05/03 14:13:41;;;;;;;;;;;21.30;55.00;;;;;;5039335;28;19920;-59
2022/05/03 14:16:07;;;;;;;;;;;21.30;55.10;;;;;;5038944;28;20476;-59
2022/05/03 14:18:32;;;;;;;;;;;21.30;55.10;;;;;;5037147;28;19917;-60
2022/05/03 14:20:58;;;;;;;;;;;21.30;55.00;;;;;;5038257;28;19923;-60
2022/05/03 14:23:25;;;;;;;;;;;21.30;55.10;;;;;;5037965;28;21344;-61
2022/05/03 14:25:50;;;;;;;;;;;21.30;55.10;;;;;;4979786;28;20382;-59
2022/05/03 14:28:17;;;;;;;;;;;21.30;55.00;;;;;;5009948;28;19917;-59
2022/05/03 14:30:43;;;;;;;;;;;21.30;55.10;;;;;;5028996;28;19992;-60
2022/05/03 14:33:09;;;;;;;;;;;21.30;55.10;;;;;;5038800;28;19923;-59
2022/05/03 14:35:35;;;;;;;;;;;21.40;55.10;;;;;;5026394;28;19922;-60
2022/05/03 14:38:00;;;;;;;;;;;21.40;55.20;;;;;;5019129;28;20457;-60
2022/05/03 14:40:26;;;;;;;;;;;21.40;55.10;;;;;;5027900;28;19913;-60
2022/05/03 14:42:51;;;;;;;;;;;21.40;55.00;;;;;;5039348;28;19960;-60
2022/05/03 14:45:17;;;;;;;;;;;21.40;55.10;;;;;;5038749;28;19913;-59
2022/05/03 14:47:43;;;;;;;;;;;21.40;55.10;;;;;;5038887;28;19916;-58
2022/05/03 14:50:09;;;;;;;;;;;21.40;55.00;;;;;;5030274;28;19913;-60
2022/05/03 14:52:34;;;;;;;;;;;21.40;55.00;;;;;;5018822;28;20172;-60
2022/05/03 14:54:59;;;;;;;;;;;21.40;55.00;;;;;;5023492;28;19917;-59
2022/05/03 15:02:59;;;;;;;;;;;21.40;55.00;;;;;;4998667;28;19968;-61
2022/05/03 15:05:26;;;;;;;;;;;21.40;55.00;;;;;;5007310;28;19989;-61
2022/05/03 15:07:52;;;;;;;;;;;21.40;55.00;;;;;;5038379;28;20425;-60